createdAt,value
2022-08-09T00:00:12.346Z,12.62
2022-08-09T00:01:14.467Z,12.55
2022-08-09T00:02:12.291Z,12.55
2022-08-09T00:04:08.510Z,12.59
2022-08-09T00:04:24.885Z,12.66
2022-08-09T00:06:18.424Z,12.6
2022-08-09T00:06:19.789Z,12.64
2022-08-09T00:07:12.259Z,12.7
2022-08-09T00:08:31.299Z,12.77
2022-08-09T00:09:12.258Z,12.67
2022-08-09T00:10:21.542Z,12.83
2022-08-09T00:11:24.352Z,12.9
2022-08-09T00:12:22.289Z,12.79
2022-08-09T00:13:16.899Z,12.67
2022-08-09T00:14:12.261Z,12.51
2022-08-09T00:15:13.860Z,12.62
2022-08-09T00:16:12.761Z,12.57
2022-08-09T00:18:04.220Z,12.45
2022-08-09T00:18:12.613Z,12.54
2022-08-09T00:19:12.249Z,12.51
2022-08-09T00:20:12.272Z,12.77
2022-08-09T00:21:12.271Z,12.77
2022-08-09T00:22:12.263Z,12.68
2022-08-09T00:23:55.200Z,12.66
2022-08-09T00:24:12.264Z,12.63
2022-08-09T00:25:12.857Z,12.61
2022-08-09T00:26:12.277Z,12.6
2022-08-09T00:27:12.266Z,12.58
2022-08-09T00:28:12.254Z,12.65
2022-08-09T00:29:39.228Z,12.71
2022-08-09T00:30:25.442Z,12.71
2022-08-09T00:31:55.782Z,12.5
2022-08-09T00:32:12.579Z,12.53
2022-08-09T00:33:12.252Z,12.63
2022-08-09T00:34:12.253Z,12.54
2022-08-09T00:35:12.243Z,12.54
2022-08-09T00:36:12.261Z,12.48
2022-08-09T00:37:12.249Z,12.36
2022-08-09T00:38:12.263Z,12.35
2022-08-09T00:40:09.510Z,12.35
2022-08-09T00:40:17.215Z,12.23
2022-08-09T00:41:12.268Z,12.23
2022-08-09T00:44:13.328Z,12.2
2022-08-09T00:44:16.957Z,12.15
2022-08-09T00:44:26.392Z,12.08
2022-08-09T00:45:15.731Z,12.03
2022-08-09T00:46:14.536Z,11.96
2022-08-09T00:47:15.555Z,12.12
2022-08-09T00:48:15.335Z,12.12
2022-08-09T00:49:12.257Z,12.04
2022-08-09T00:50:14.526Z,12.02
2022-08-09T00:51:12.940Z,11.99
2022-08-09T00:52:15.916Z,11.99
2022-08-09T00:53:12.263Z,11.96
2022-08-09T00:54:12.261Z,12.03
2022-08-09T00:55:32.965Z,11.98
2022-08-09T00:56:12.262Z,12.04
2022-08-09T00:57:12.261Z,12.01
2022-08-09T00:58:14.860Z,12.02
2022-08-09T00:59:12.250Z,11.95
2022-08-09T01:00:21.657Z,11.9
2022-08-09T01:01:16.164Z,11.83
2022-08-09T01:02:12.247Z,11.78
2022-08-09T01:03:12.255Z,11.78
2022-08-09T01:04:12.261Z,11.72
2022-08-09T01:05:14.153Z,11.83
2022-08-09T01:06:18.027Z,11.75
2022-08-09T01:07:12.379Z,11.75
2022-08-09T01:08:12.264Z,11.78
2022-08-09T01:09:12.254Z,11.9
2022-08-09T01:10:12.259Z,11.94
2022-08-09T01:11:15.144Z,11.91
2022-08-09T01:12:12.817Z,11.68
2022-08-09T01:13:12.249Z,11.98
2022-08-09T01:14:12.266Z,11.91
2022-08-09T01:15:17.609Z,11.88
2022-08-09T01:16:12.954Z,11.87
2022-08-09T01:17:12.260Z,11.81
2022-08-09T01:18:14.239Z,11.8
2022-08-09T01:19:16.773Z,11.86
2022-08-09T01:20:12.272Z,11.76
2022-08-09T01:21:12.274Z,11.79
2022-08-09T01:22:12.504Z,11.85
2022-08-09T01:24:00.700Z,11.73
2022-08-09T01:24:12.278Z,11.85
2022-08-09T01:25:12.412Z,11.85
2022-08-09T01:26:12.278Z,11.72
2022-08-09T01:27:12.265Z,11.68
2022-08-09T01:28:12.252Z,11.72
2022-08-09T01:29:12.261Z,11.76
2022-08-09T01:30:33.440Z,11.74
2022-08-09T01:32:30.959Z,11.78
2022-08-09T01:32:31.646Z,11.69
2022-08-09T01:33:12.262Z,11.8
2022-08-09T01:34:12.259Z,11.84
2022-08-09T01:35:28.594Z,11.84
2022-08-09T01:36:13.500Z,11.89
2022-08-09T01:37:12.260Z,11.78
2022-08-09T01:38:15.211Z,11.7
2022-08-09T01:39:12.332Z,11.67
2022-08-09T01:40:12.255Z,11.67
2022-08-09T01:41:12.310Z,11.76
2022-08-09T01:42:12.250Z,11.74
2022-08-09T01:43:12.246Z,11.69
2022-08-09T01:44:12.248Z,11.69
2022-08-09T01:45:12.252Z,11.7
2022-08-09T01:46:12.256Z,11.56
2022-08-09T01:47:12.247Z,11.53
2022-08-09T01:48:12.260Z,11.55
2022-08-09T01:49:12.844Z,11.52
2022-08-09T01:50:12.252Z,11.63
2022-08-09T01:51:12.269Z,11.63
2022-08-09T01:52:12.273Z,11.78
2022-08-09T01:53:19.337Z,11.72
2022-08-09T01:54:12.262Z,11.68
2022-08-09T01:55:12.258Z,11.63
2022-08-09T01:56:12.269Z,11.6
2022-08-09T01:57:14.780Z,11.71
2022-08-09T01:58:12.271Z,11.61
2022-08-09T01:59:16.146Z,11.58
2022-08-09T02:00:35.001Z,11.58
2022-08-09T02:01:18.477Z,11.54
2022-08-09T02:02:12.288Z,11.54
2022-08-09T02:03:13.634Z,11.47
2022-08-09T02:04:12.260Z,11.43
2022-08-09T02:05:15.791Z,11.52
2022-08-09T02:06:12.274Z,11.51
2022-08-09T02:07:18.335Z,11.48
2022-08-09T02:08:40.801Z,11.45
2022-08-09T02:09:12.275Z,11.46
2022-08-09T02:10:12.281Z,11.49
2022-08-09T02:11:16.573Z,11.59
2022-08-09T02:12:13.457Z,11.57
2022-08-09T02:13:12.268Z,11.48
2022-08-09T02:14:15.900Z,11.51
2022-08-09T02:15:16.785Z,11.45
2022-08-09T02:16:12.446Z,11.39
2022-08-09T02:17:55.087Z,11.38
2022-08-09T02:18:12.265Z,11.38
2022-08-09T02:19:12.262Z,11.38
2022-08-09T02:20:12.718Z,11.4
2022-08-09T02:21:17.034Z,11.4
2022-08-09T02:22:12.266Z,11.36
2022-08-09T02:23:12.259Z,11.34
2022-08-09T02:24:12.250Z,11.34
2022-08-09T02:25:15.048Z,11.34
2022-08-09T02:26:26.894Z,11.19
2022-08-09T02:27:12.247Z,11.13
2022-08-09T02:28:12.255Z,11.13
2022-08-09T02:29:12.263Z,11.13
2022-08-09T02:30:12.263Z,11.13
2022-08-09T02:31:12.271Z,11.09
2022-08-09T02:32:12.251Z,11.07
2022-08-09T02:33:14.163Z,11.07
2022-08-09T02:34:13.823Z,11.03
2022-08-09T02:35:17.387Z,11.03
2022-08-09T02:36:12.272Z,11.1
2022-08-09T02:37:12.412Z,11.18
2022-08-09T02:38:12.262Z,11.16
2022-08-09T02:39:19.811Z,11.24
2022-08-09T02:42:12.269Z,11.27
2022-08-09T02:43:12.251Z,11.53
2022-08-09T02:44:29.066Z,11.47
2022-08-09T02:45:12.247Z,11.51
2022-08-09T02:46:12.254Z,11.51
2022-08-09T02:47:12.263Z,11.47
2022-08-09T02:48:19.390Z,11.41
2022-08-09T02:49:12.262Z,11.16
2022-08-09T02:50:12.245Z,11.16
2022-08-09T02:51:12.249Z,11.03
2022-08-09T02:52:12.255Z,11.12
2022-08-09T02:53:26.343Z,11.03
2022-08-09T02:54:12.358Z,11.03
2022-08-09T02:55:20.623Z,11.03
2022-08-09T02:56:12.254Z,10.92
2022-08-09T02:57:13.887Z,10.91
2022-08-09T02:58:35.498Z,10.91
2022-08-09T02:59:16.033Z,10.84
2022-08-09T03:00:25.374Z,10.84
2022-08-09T03:01:21.866Z,10.7
2022-08-09T03:02:16.854Z,10.79
2022-08-09T03:03:12.260Z,10.73
2022-08-09T03:04:19.172Z,10.69
2022-08-09T03:05:16.636Z,10.69
2022-08-09T03:06:12.256Z,10.64
2022-08-09T03:07:14.225Z,10.66
2022-08-09T03:08:12.252Z,10.66
2022-08-09T03:09:12.257Z,10.58
2022-08-09T03:10:12.241Z,10.58
2022-08-09T03:11:12.248Z,10.45
2022-08-09T03:12:13.430Z,10.51
2022-08-09T03:13:12.257Z,10.47
2022-08-09T03:14:12.247Z,10.57
2022-08-09T03:15:12.245Z,10.57
2022-08-09T03:16:12.258Z,10.61
2022-08-09T03:17:20.297Z,10.65
2022-08-09T03:18:12.261Z,10.65
2022-08-09T03:19:14.483Z,10.71
2022-08-09T03:20:12.247Z,10.71
2022-08-09T03:21:12.252Z,10.8
2022-08-09T03:22:25.515Z,10.78
2022-08-09T03:23:15.172Z,10.76
2022-08-09T03:24:12.259Z,10.74
2022-08-09T03:25:26.052Z,10.74
2022-08-09T03:26:12.252Z,10.8
2022-08-09T03:27:12.269Z,10.8
2022-08-09T03:28:12.258Z,10.79
2022-08-09T03:29:22.505Z,10.83
2022-08-09T03:30:12.258Z,10.83
2022-08-09T03:31:22.707Z,10.83
2022-08-09T03:32:12.265Z,10.77
2022-08-09T03:33:17.308Z,10.89
2022-08-09T03:34:12.255Z,10.89
2022-08-09T03:35:14.983Z,10.89
2022-08-09T03:36:16.330Z,10.91
2022-08-09T03:37:58.285Z,10.85
2022-08-09T03:38:16.017Z,10.85
2022-08-09T03:39:12.290Z,10.96
2022-08-09T03:40:13.133Z,10.96
2022-08-09T03:41:15.462Z,10.99
2022-08-09T03:42:12.269Z,10.99
2022-08-09T03:43:12.260Z,10.94
2022-08-09T03:44:12.258Z,10.95
2022-08-09T03:45:12.241Z,10.96
2022-08-09T03:46:20.530Z,11.05
2022-08-09T03:47:12.266Z,11.05
2022-08-09T03:48:12.260Z,10.97
2022-08-09T03:49:12.259Z,10.97
2022-08-09T03:50:12.243Z,10.97
2022-08-09T03:51:57.792Z,11
2022-08-09T03:52:12.263Z,11
2022-08-09T03:53:12.249Z,11.07
2022-08-09T03:54:12.249Z,11.13
2022-08-09T03:55:14.305Z,11.13
2022-08-09T03:56:12.262Z,11.07
2022-08-09T03:57:20.185Z,10.97
2022-08-09T03:58:16.742Z,10.99
2022-08-09T03:59:17.230Z,10.91
2022-08-09T04:00:12.249Z,10.91
2022-08-09T04:01:12.300Z,10.94
2022-08-09T04:02:12.263Z,10.92
2022-08-09T04:03:19.658Z,10.88
2022-08-09T04:04:14.523Z,10.85
2022-08-09T04:05:17.038Z,10.85
2022-08-09T04:06:12.244Z,10.95
2022-08-09T04:07:12.269Z,10.89
2022-08-09T04:08:12.243Z,10.93
2022-08-09T04:09:41.820Z,10.95
2022-08-09T04:10:12.252Z,10.95
2022-08-09T04:11:12.254Z,10.92
2022-08-09T04:12:30.996Z,10.92
2022-08-09T04:13:12.278Z,10.92
2022-08-09T04:14:52.986Z,10.92
2022-08-09T04:15:29.296Z,10.92
2022-08-09T04:16:19.423Z,10.92
2022-08-09T04:17:12.262Z,10.92
2022-08-09T04:18:16.501Z,10.92
2022-08-09T04:19:15.786Z,10.92
2022-08-09T04:20:12.246Z,10.92
2022-08-09T04:21:12.256Z,10.92
2022-08-09T04:22:13.105Z,10.92
2022-08-09T04:23:16.777Z,10.92
2022-08-09T04:24:12.257Z,10.92
2022-08-09T04:25:12.246Z,10.92
2022-08-09T04:26:12.242Z,10.92
2022-08-09T04:27:12.265Z,10.92
2022-08-09T04:28:12.484Z,10.92
2022-08-09T04:29:15.563Z,10.92
2022-08-09T04:30:12.250Z,10.92
2022-08-09T04:31:13.101Z,10.92
2022-08-09T04:32:12.261Z,10.92
2022-08-09T04:33:12.268Z,10.92
2022-08-09T04:34:12.248Z,10.92
2022-08-09T04:35:12.246Z,10.92
2022-08-09T04:36:12.263Z,10.92
2022-08-09T04:37:12.268Z,10.92
2022-08-09T04:38:12.257Z,10.92
2022-08-09T04:39:12.309Z,10.92
2022-08-09T04:40:12.249Z,10.92
2022-08-09T04:41:12.252Z,10.92
2022-08-09T04:42:12.264Z,10.92
2022-08-09T04:43:12.259Z,10.92
2022-08-09T04:44:12.258Z,10.92
2022-08-09T04:45:12.246Z,10.92
2022-08-09T04:46:37.557Z,10.92
2022-08-09T04:47:12.277Z,10.92
2022-08-09T04:48:12.254Z,10.92
2022-08-09T04:49:14.781Z,10.92
2022-08-09T04:50:12.252Z,10.92
2022-08-09T04:51:12.262Z,10.92
2022-08-09T04:52:12.265Z,10.92
2022-08-09T04:53:13.382Z,10.92
2022-08-09T04:54:12.258Z,10.92
2022-08-09T04:55:12.756Z,10.92
2022-08-09T04:56:12.257Z,10.92
2022-08-09T04:57:12.388Z,10.92
2022-08-09T04:58:12.254Z,10.92
2022-08-09T04:59:15.404Z,10.92
2022-08-09T05:00:12.249Z,10.92
2022-08-09T05:01:16.030Z,10.92
2022-08-09T05:02:12.263Z,10.92
2022-08-09T05:03:30.196Z,10.92
2022-08-09T05:04:12.336Z,10.92
2022-08-09T05:05:12.241Z,10.92
2022-08-09T05:06:21.792Z,10.92
2022-08-09T05:07:12.784Z,10.92
2022-08-09T05:08:14.897Z,10.92
2022-08-09T05:09:12.442Z,10.92
2022-08-09T05:10:12.245Z,10.92
2022-08-09T05:11:12.250Z,10.92
2022-08-09T05:12:12.558Z,10.92
2022-08-09T05:13:12.253Z,10.92
2022-08-09T05:14:12.251Z,10.92
2022-08-09T05:15:38.372Z,10.92
2022-08-09T05:16:12.261Z,10.92
2022-08-09T05:18:37.416Z,10.92
2022-08-09T05:18:39.370Z,10.92
2022-08-09T05:19:12.251Z,10.92
2022-08-09T05:20:12.256Z,10.92
2022-08-09T05:21:20.795Z,10.92
2022-08-09T05:22:33.317Z,10.92
2022-08-09T05:23:55.320Z,10.92
2022-08-09T05:24:12.258Z,10.92
2022-08-09T05:25:12.251Z,10.92
2022-08-09T05:26:22.300Z,10.92
2022-08-09T05:27:13.384Z,10.92
2022-08-09T05:28:12.251Z,10.92
2022-08-09T05:29:17.776Z,10.92
2022-08-09T05:30:12.246Z,10.92
2022-08-09T05:31:12.257Z,10.92
2022-08-09T05:32:12.265Z,10.92
2022-08-09T05:33:12.262Z,10.92
2022-08-09T05:34:16.517Z,10.92
2022-08-09T05:35:12.241Z,10.92
2022-08-09T05:36:12.246Z,10.92
2022-08-09T05:37:12.260Z,10.92
2022-08-09T05:38:12.254Z,10.92
2022-08-09T05:39:12.335Z,10.92
2022-08-09T05:40:12.305Z,10.92
2022-08-09T05:41:12.837Z,10.92
2022-08-09T05:42:17.227Z,10.92
2022-08-09T05:43:12.259Z,10.92
2022-08-09T05:44:12.260Z,10.92
2022-08-09T05:45:14.135Z,10.92
2022-08-09T05:46:12.255Z,10.92
2022-08-09T05:47:12.264Z,10.92
2022-08-09T05:48:12.256Z,10.92
2022-08-09T05:49:13.703Z,10.92
2022-08-09T05:50:25.546Z,10.92
2022-08-09T05:51:29.783Z,10.92
2022-08-09T05:52:12.265Z,10.92
2022-08-09T05:53:32.462Z,10.92
2022-08-09T05:54:12.254Z,10.92
2022-08-09T05:55:18.255Z,10.92
2022-08-09T05:56:12.248Z,10.92
2022-08-09T05:57:12.803Z,10.92
2022-08-09T05:58:12.253Z,10.92
2022-08-09T05:59:12.258Z,10.92
2022-08-09T06:00:12.245Z,10.92
2022-08-09T06:01:15.836Z,10.92
2022-08-09T06:02:12.265Z,10.92
2022-08-09T06:03:12.356Z,10.92
2022-08-09T06:04:12.501Z,10.92
2022-08-09T06:05:12.246Z,10.92
2022-08-09T06:06:12.244Z,10.92
2022-08-09T06:07:21.070Z,10.92
2022-08-09T06:08:12.254Z,10.92
2022-08-09T06:09:23.183Z,10.92
2022-08-09T06:10:15.956Z,10.92
2022-08-09T06:11:17.348Z,10.92
2022-08-09T06:12:12.273Z,10.92
2022-08-09T06:13:20.248Z,10.92
2022-08-09T06:14:12.245Z,10.92
2022-08-09T06:15:12.252Z,10.92
2022-08-09T06:16:12.247Z,10.92
2022-08-09T06:17:12.274Z,10.92
2022-08-09T06:18:12.258Z,10.92
2022-08-09T06:19:12.247Z,10.92
2022-08-09T06:20:12.273Z,10.92
2022-08-09T06:21:12.241Z,10.92
2022-08-09T06:22:15.234Z,10.92
2022-08-09T06:23:15.575Z,10.92
2022-08-09T06:24:12.266Z,10.92
2022-08-09T06:25:12.462Z,10.92
2022-08-09T06:26:12.259Z,10.92
2022-08-09T06:27:12.267Z,10.92
2022-08-09T06:28:12.248Z,10.92
2022-08-09T06:29:14.999Z,10.92
2022-08-09T06:30:13.985Z,10.92
2022-08-09T06:31:12.251Z,10.92
2022-08-09T06:32:53.464Z,10.92
2022-08-09T06:33:30.202Z,10.92
2022-08-09T06:34:12.269Z,10.92
2022-08-09T06:35:12.244Z,10.92
2022-08-09T06:36:13.811Z,10.92
2022-08-09T06:37:12.261Z,10.92
2022-08-09T06:38:12.252Z,10.92
2022-08-09T06:39:12.629Z,10.92
2022-08-09T06:40:23.881Z,10.92
2022-08-09T06:41:18.968Z,10.92
2022-08-09T06:42:12.265Z,10.92
2022-08-09T06:43:12.261Z,10.92
2022-08-09T06:44:12.256Z,10.92
2022-08-09T06:46:03.351Z,10.92
2022-08-09T06:46:13.166Z,10.92
2022-08-09T06:47:12.351Z,10.92
2022-08-09T06:48:12.262Z,10.92
2022-08-09T06:49:12.261Z,10.92
2022-08-09T06:50:15.688Z,10.92
2022-08-09T06:51:12.267Z,10.92
2022-08-09T06:52:15.702Z,10.92
2022-08-09T06:53:12.253Z,10.92
2022-08-09T06:54:13.922Z,10.92
2022-08-09T06:55:12.752Z,10.92
2022-08-09T06:56:12.249Z,10.92
2022-08-09T06:57:12.266Z,10.92
2022-08-09T06:58:40.731Z,10.92
2022-08-09T07:00:52.320Z,10.92
2022-08-09T07:00:56.139Z,10.92
2022-08-09T07:01:12.283Z,10.92
2022-08-09T07:02:12.326Z,10.92
2022-08-09T07:03:12.277Z,10.92
2022-08-09T07:04:12.252Z,10.92
2022-08-09T07:05:12.249Z,10.92
2022-08-09T07:06:12.247Z,10.92
2022-08-09T07:07:12.315Z,10.92
2022-08-09T07:08:12.249Z,10.92
2022-08-09T07:09:53.645Z,10.92
2022-08-09T07:10:24.063Z,10.92
2022-08-09T07:11:12.751Z,10.92
2022-08-09T07:12:13.589Z,10.92
2022-08-09T07:13:27.271Z,10.92
2022-08-09T07:14:12.249Z,10.92
2022-08-09T07:16:38.603Z,10.92
2022-08-09T07:16:40.872Z,10.92
2022-08-09T07:17:12.274Z,10.92
2022-08-09T07:18:14.347Z,10.92
2022-08-09T07:19:15.687Z,10.92
2022-08-09T07:20:12.254Z,10.92
2022-08-09T07:21:12.255Z,10.92
2022-08-09T07:22:12.258Z,10.92
2022-08-09T07:23:18.898Z,10.92
2022-08-09T07:24:12.262Z,10.92
2022-08-09T07:25:12.242Z,10.92
2022-08-09T07:26:12.256Z,10.92
2022-08-09T07:27:26.169Z,10.92
2022-08-09T07:28:12.258Z,10.92
2022-08-09T07:29:13.500Z,10.92
2022-08-09T07:30:12.251Z,10.92
2022-08-09T07:31:12.261Z,10.92
2022-08-09T07:32:12.264Z,10.92
2022-08-09T07:33:16.458Z,10.92
2022-08-09T07:34:20.135Z,10.92
2022-08-09T07:35:12.239Z,10.92
2022-08-09T07:36:12.257Z,10.92
2022-08-09T07:37:15.791Z,10.92
2022-08-09T07:38:12.257Z,10.92
2022-08-09T07:39:12.284Z,10.92
2022-08-09T07:40:13.113Z,10.92
2022-08-09T07:41:12.911Z,10.92
2022-08-09T07:42:12.267Z,10.92
2022-08-09T07:43:16.386Z,10.92
2022-08-09T07:44:12.255Z,10.92
2022-08-09T07:45:22.697Z,10.92
2022-08-09T07:46:12.264Z,10.92
2022-08-09T07:47:12.263Z,10.92
2022-08-09T07:48:29.531Z,10.92
2022-08-09T07:49:15.471Z,10.92
2022-08-09T07:50:12.272Z,10.92
2022-08-09T07:52:04.613Z,10.92
2022-08-09T07:52:16.939Z,10.92
2022-08-09T07:53:12.243Z,10.92
2022-08-09T07:54:12.260Z,10.92
2022-08-09T07:55:12.243Z,10.92
2022-08-09T07:56:26.678Z,10.92
2022-08-09T07:57:12.268Z,10.92
2022-08-09T07:58:13.120Z,10.92
2022-08-09T07:59:16.128Z,10.92
2022-08-09T08:00:12.245Z,10.92
2022-08-09T08:01:12.241Z,10.92
2022-08-09T08:02:16.638Z,10.92
2022-08-09T08:03:12.255Z,10.92
2022-08-09T08:04:12.241Z,10.92
2022-08-09T08:05:17.939Z,10.92
2022-08-09T08:06:14.411Z,10.92
2022-08-09T08:08:05.959Z,10.92
2022-08-09T08:09:02.634Z,10.92
2022-08-09T08:09:35.258Z,10.92
2022-08-09T08:10:12.262Z,10.92
2022-08-09T08:12:11.481Z,10.92
2022-08-09T08:12:27.752Z,10.92
2022-08-09T08:13:12.248Z,10.92
2022-08-09T08:14:12.256Z,10.92
2022-08-09T08:15:12.243Z,10.92
2022-08-09T08:16:29.826Z,10.92
2022-08-09T08:17:24.711Z,10.92
2022-08-09T08:18:12.255Z,10.92
2022-08-09T08:19:12.246Z,10.92
2022-08-09T08:20:13.159Z,10.92
2022-08-09T08:21:12.252Z,10.92
2022-08-09T08:22:12.251Z,10.92
2022-08-09T08:23:17.155Z,10.92
2022-08-09T08:24:16.406Z,10.92
2022-08-09T08:25:13.480Z,10.92
2022-08-09T08:26:13.130Z,10.92
2022-08-09T08:27:16.983Z,10.92
2022-08-09T08:28:14.440Z,10.92
2022-08-09T08:29:12.259Z,10.92
2022-08-09T08:30:12.261Z,10.92
2022-08-09T08:31:14.974Z,10.92
2022-08-09T08:32:12.432Z,10.92
2022-08-09T08:33:12.271Z,10.92
2022-08-09T08:34:12.260Z,10.92
2022-08-09T08:35:12.241Z,10.92
2022-08-09T08:36:12.249Z,10.92
2022-08-09T08:37:15.842Z,10.92
2022-08-09T08:38:12.247Z,10.92
2022-08-09T08:39:12.320Z,10.92
2022-08-09T08:40:12.249Z,10.92
2022-08-09T08:41:12.245Z,10.92
2022-08-09T08:42:12.269Z,10.92
2022-08-09T08:43:13.457Z,10.92
2022-08-09T08:44:13.761Z,10.92
2022-08-09T08:45:13.761Z,10.92
2022-08-09T08:46:33.328Z,10.92
2022-08-09T08:47:13.456Z,10.92
2022-08-09T08:48:12.260Z,10.92
2022-08-09T08:49:12.886Z,10.92
2022-08-09T08:50:12.254Z,10.92
2022-08-09T08:51:12.247Z,10.92
2022-08-09T08:52:20.302Z,10.92
2022-08-09T08:53:16.038Z,10.92
2022-08-09T08:54:20.119Z,10.92
2022-08-09T08:55:15.108Z,10.92
2022-08-09T08:56:16.790Z,10.92
2022-08-09T08:57:12.263Z,10.92
2022-08-09T08:58:12.250Z,10.92
2022-08-09T08:59:19.965Z,10.92
2022-08-09T09:00:16.878Z,10.92
2022-08-09T09:01:20.840Z,10.92
2022-08-09T09:02:12.307Z,10.92
2022-08-09T09:03:20.757Z,10.92
2022-08-09T09:04:12.260Z,10.92
2022-08-09T09:05:12.253Z,10.92
2022-08-09T09:06:12.257Z,10.92
2022-08-09T09:07:12.262Z,10.92
2022-08-09T09:08:30.198Z,10.92
2022-08-09T09:09:21.097Z,10.92
2022-08-09T09:10:12.278Z,10.92
2022-08-09T09:11:17.601Z,10.92
2022-08-09T09:12:12.303Z,10.92
2022-08-09T09:13:12.252Z,10.92
2022-08-09T09:14:15.655Z,10.92
2022-08-09T09:15:12.315Z,10.92
2022-08-09T09:16:12.255Z,10.92
2022-08-09T09:17:16.303Z,10.92
2022-08-09T09:18:12.258Z,10.92
2022-08-09T09:19:41.481Z,10.92
2022-08-09T09:20:15.189Z,10.92
2022-08-09T09:21:12.259Z,10.92
2022-08-09T09:22:12.633Z,10.92
2022-08-09T09:23:14.172Z,10.92
2022-08-09T09:24:20.567Z,10.92
2022-08-09T09:26:01.854Z,10.92
2022-08-09T09:26:12.763Z,10.92
2022-08-09T09:27:21.954Z,10.92
2022-08-09T09:28:12.267Z,10.92
2022-08-09T09:29:16.763Z,10.92
2022-08-09T09:30:26.230Z,10.92
2022-08-09T09:31:17.577Z,10.92
2022-08-09T09:32:15.930Z,10.92
2022-08-09T09:33:13.792Z,10.92
2022-08-09T09:34:14.245Z,10.92
2022-08-09T09:35:12.904Z,10.92
2022-08-09T09:36:21.061Z,10.92
2022-08-09T09:37:12.967Z,10.92
2022-08-09T09:38:27.609Z,10.92
2022-08-09T09:39:12.301Z,10.92
2022-08-09T09:40:12.343Z,10.92
2022-08-09T09:41:12.261Z,10.92
2022-08-09T09:42:12.262Z,10.92
2022-08-09T09:43:13.620Z,10.92
2022-08-09T09:44:15.592Z,10.92
2022-08-09T09:45:14.409Z,10.92
2022-08-09T09:46:41.792Z,10.92
2022-08-09T09:47:12.276Z,10.92
2022-08-09T09:48:12.255Z,10.92
2022-08-09T09:49:12.254Z,10.92
2022-08-09T09:50:16.901Z,10.92
2022-08-09T09:51:25.909Z,10.92
2022-08-09T09:52:33.368Z,10.92
2022-08-09T09:53:12.257Z,10.92
2022-08-09T09:54:19.210Z,10.92
2022-08-09T09:55:28.407Z,10.92
2022-08-09T09:56:19.731Z,10.92
2022-08-09T09:58:03.317Z,10.92
2022-08-09T09:58:17.295Z,10.92
2022-08-09T09:59:12.252Z,10.92
2022-08-09T10:00:12.353Z,10.92
2022-08-09T10:01:31.416Z,10.92
2022-08-09T10:02:12.260Z,10.92
2022-08-09T10:03:13.981Z,10.92
2022-08-09T10:04:12.306Z,10.92
2022-08-09T10:05:12.240Z,10.92
2022-08-09T10:06:12.554Z,10.92
2022-08-09T10:07:12.265Z,10.92
2022-08-09T10:08:28.414Z,10.92
2022-08-09T10:09:22.108Z,10.92
2022-08-09T10:10:12.263Z,10.92
2022-08-09T10:11:53.715Z,10.92
2022-08-09T10:12:27.730Z,10.92
2022-08-09T10:13:12.256Z,10.92
2022-08-09T10:14:12.251Z,10.92
2022-08-09T10:15:17.473Z,10.92
2022-08-09T10:16:57.100Z,10.92
2022-08-09T10:17:55.180Z,10.92
2022-08-09T10:18:12.257Z,10.92
2022-08-09T10:19:12.262Z,10.92
2022-08-09T10:20:15.238Z,10.92
2022-08-09T10:21:12.241Z,10.92
2022-08-09T10:22:12.263Z,10.92
2022-08-09T10:23:12.262Z,10.92
2022-08-09T10:24:16.097Z,10.92
2022-08-09T10:25:14.315Z,10.92
2022-08-09T10:26:12.243Z,10.92
2022-08-09T10:27:17.169Z,10.92
2022-08-09T10:28:12.251Z,10.92
2022-08-09T10:29:35.974Z,10.92
2022-08-09T10:31:15.576Z,10.92
2022-08-09T10:32:38.282Z,10.92
2022-08-09T10:34:05.261Z,10.92
2022-08-09T10:34:32.626Z,10.92
2022-08-09T10:35:13.338Z,10.92
2022-08-09T10:36:12.642Z,10.92
2022-08-09T10:37:13.906Z,10.92
2022-08-09T10:38:34.033Z,10.92
2022-08-09T10:39:15.523Z,10.92
2022-08-09T10:40:33.510Z,10.92
2022-08-09T10:41:12.264Z,10.92
2022-08-09T10:42:12.261Z,10.92
2022-08-09T10:43:13.004Z,10.92
2022-08-09T10:44:12.247Z,10.92
2022-08-09T10:45:16.514Z,10.92
2022-08-09T10:46:18.216Z,10.92
2022-08-09T10:48:12.276Z,10.92
2022-08-09T10:48:26.428Z,10.92
2022-08-09T10:49:12.266Z,10.92
2022-08-09T10:50:15.057Z,10.92
2022-08-09T10:51:12.263Z,10.92
2022-08-09T10:52:13.568Z,10.92
2022-08-09T10:53:12.256Z,10.92
2022-08-09T10:54:13.212Z,10.92
2022-08-09T10:55:12.243Z,10.92
2022-08-09T10:56:12.254Z,10.92
2022-08-09T10:57:12.269Z,10.92
2022-08-09T10:58:17.138Z,10.92
2022-08-09T10:59:12.254Z,10.92
2022-08-09T11:00:12.251Z,10.92
2022-08-09T11:03:12.072Z,10.92
2022-08-09T11:03:15.056Z,10.92
2022-08-09T11:03:27.899Z,10.92
2022-08-09T11:04:27.917Z,10.92
2022-08-09T11:05:12.286Z,10.92
2022-08-09T11:06:12.256Z,10.92
2022-08-09T11:07:12.267Z,10.92
2022-08-09T11:08:12.246Z,10.92
2022-08-09T11:09:16.223Z,10.92
2022-08-09T11:10:12.253Z,10.92
2022-08-09T11:11:12.258Z,10.92
2022-08-09T11:12:12.268Z,10.92
2022-08-09T11:13:12.246Z,10.92
2022-08-09T11:14:12.247Z,10.92
2022-08-09T11:15:15.428Z,10.92
2022-08-09T11:16:12.260Z,10.92
2022-08-09T11:17:12.254Z,10.92
2022-08-09T11:18:12.259Z,10.92
2022-08-09T11:19:12.257Z,10.92
2022-08-09T11:20:22.250Z,10.92
2022-08-09T11:21:12.250Z,10.92
2022-08-09T11:22:21.534Z,10.92
2022-08-09T11:23:12.259Z,10.92
2022-08-09T11:24:12.249Z,10.92
2022-08-09T11:25:12.246Z,10.92
2022-08-09T11:26:12.243Z,10.92
2022-08-09T11:27:12.258Z,10.92
2022-08-09T11:28:30.616Z,10.92
2022-08-09T11:29:12.268Z,10.92
2022-08-09T11:30:32.586Z,10.92
2022-08-09T11:31:12.259Z,10.92
2022-08-09T11:32:12.264Z,10.92
2022-08-09T11:33:12.258Z,10.92
2022-08-09T11:34:12.257Z,10.92
2022-08-09T11:35:12.367Z,10.92
2022-08-09T11:36:12.253Z,10.92
2022-08-09T11:37:18.279Z,10.92
2022-08-09T11:38:12.262Z,10.92
2022-08-09T11:39:12.370Z,10.92
2022-08-09T11:40:12.259Z,10.92
2022-08-09T11:41:12.873Z,10.92
2022-08-09T11:42:14.752Z,10.92
2022-08-09T11:43:12.248Z,10.92
2022-08-09T11:44:12.245Z,10.92
2022-08-09T11:45:12.242Z,10.92
2022-08-09T11:46:12.251Z,10.92
2022-08-09T11:47:14.644Z,10.92
2022-08-09T11:48:17.438Z,10.92
2022-08-09T11:49:16.903Z,10.92
2022-08-09T11:50:56.091Z,10.92
2022-08-09T11:52:56.628Z,10.92
2022-08-09T11:53:03.370Z,10.92
2022-08-09T11:53:59.095Z,10.92
2022-08-09T11:54:12.862Z,10.92
2022-08-09T11:55:12.239Z,10.92
2022-08-09T11:56:12.258Z,10.92
2022-08-09T11:57:12.263Z,10.92
2022-08-09T11:58:12.251Z,10.92
2022-08-09T11:59:12.293Z,10.92
2022-08-09T12:00:16.432Z,10.92
2022-08-09T12:01:15.590Z,10.92
2022-08-09T12:02:17.559Z,10.92
2022-08-09T12:03:50.442Z,10.92
2022-08-09T12:04:20.806Z,10.92
2022-08-09T12:05:17.442Z,10.92
2022-08-09T12:06:12.254Z,10.92
2022-08-09T12:07:14.135Z,10.92
2022-08-09T12:08:19.790Z,10.92
2022-08-09T12:09:19.175Z,10.92
2022-08-09T12:10:32.018Z,10.92
2022-08-09T12:11:12.828Z,10.92
2022-08-09T12:12:20.538Z,10.92
2022-08-09T12:14:08.269Z,10.92
2022-08-09T12:14:18.014Z,10.92
2022-08-09T12:15:12.247Z,10.92
2022-08-09T12:16:25.653Z,10.92
2022-08-09T12:17:20.954Z,10.92
2022-08-09T12:18:12.256Z,10.92
2022-08-09T12:19:12.411Z,10.92
2022-08-09T12:20:12.255Z,10.92
2022-08-09T12:21:28.314Z,10.92
2022-08-09T12:22:12.268Z,10.92
2022-08-09T12:23:12.255Z,10.92
2022-08-09T12:24:12.256Z,10.92
2022-08-09T12:25:12.273Z,10.92
2022-08-09T12:26:12.250Z,10.92
2022-08-09T12:28:58.297Z,10.92
2022-08-09T12:29:10.642Z,10.92
2022-08-09T12:29:29.736Z,10.92
2022-08-09T12:30:36.891Z,10.92
2022-08-09T12:31:30.939Z,10.92
2022-08-09T12:32:12.261Z,10.92
2022-08-09T12:33:12.257Z,10.92
2022-08-09T12:34:12.249Z,10.92
2022-08-09T12:35:13.307Z,10.92
2022-08-09T12:36:15.507Z,10.92
2022-08-09T12:37:23.672Z,10.92
2022-08-09T12:38:12.260Z,10.92
2022-08-09T12:39:12.271Z,10.92
2022-08-09T12:40:12.264Z,10.92
2022-08-09T12:41:12.243Z,10.92
2022-08-09T12:42:16.313Z,10.92
2022-08-09T12:43:12.257Z,10.92
2022-08-09T12:44:13.013Z,10.92
2022-08-09T12:45:34.982Z,10.92
2022-08-09T12:46:12.270Z,10.92
2022-08-09T12:47:12.455Z,10.92
2022-08-09T12:48:30.844Z,10.92
2022-08-09T12:49:12.251Z,10.92
2022-08-09T12:50:12.270Z,10.92
2022-08-09T12:51:12.263Z,10.92
2022-08-09T12:52:12.260Z,10.92
2022-08-09T12:53:17.986Z,10.92
2022-08-09T12:54:12.241Z,10.92
2022-08-09T12:56:14.001Z,10.92
2022-08-09T12:56:39.292Z,10.92